createdAt,value
2023-11-28T00:00:57.317Z,100.00
2023-11-28T00:01:57.480Z,100.00
2023-11-28T00:02:57.469Z,100.00
2023-11-28T00:03:57.290Z,100.00
2023-11-28T00:04:57.361Z,100.00
2023-11-28T00:05:57.276Z,100.00
2023-11-28T00:06:57.251Z,100.00
2023-11-28T00:07:57.408Z,100.00
2023-11-28T00:08:57.242Z,100.00
2023-11-28T00:09:57.215Z,100.00
2023-11-28T00:10:57.290Z,100.00
2023-11-28T00:11:57.196Z,100.00
2023-11-28T00:12:57.170Z,100.00
2023-11-28T00:13:57.195Z,100.00
2023-11-28T00:14:57.141Z,100.00
2023-11-28T00:15:57.146Z,100.00
2023-11-28T00:16:57.238Z,100.00
2023-11-28T00:17:57.210Z,100.00
2023-11-28T00:18:57.217Z,100.00
2023-11-28T00:19:57.157Z,100.00
2023-11-28T00:20:57.084Z,100.00
2023-11-28T00:21:57.058Z,100.00
2023-11-28T00:22:57.092Z,100.00
2023-11-28T00:23:57.031Z,100.00
2023-11-28T00:24:57.027Z,100.00
2023-11-28T00:25:57.057Z,100.00
2023-11-28T00:26:57.018Z,100.00
2023-11-28T00:27:57.015Z,100.00
2023-11-28T00:28:57.023Z,100.00
2023-11-28T00:29:56.948Z,100.00
2023-11-28T00:30:57.059Z,100.00
2023-11-28T00:31:57.010Z,100.00
2023-11-28T00:32:56.989Z,100.00
2023-11-28T00:33:56.942Z,100.00
2023-11-28T00:34:56.919Z,100.00
2023-11-28T00:35:56.886Z,100.00
2023-11-28T00:36:56.865Z,100.00
2023-11-28T00:37:56.924Z,100.00
2023-11-28T00:38:56.845Z,100.00
2023-11-28T00:39:56.835Z,100.00
2023-11-28T00:40:56.859Z,100.00
2023-11-28T00:41:56.801Z,100.00
2023-11-28T00:42:56.803Z,100.00
2023-11-28T00:43:56.841Z,100.00
2023-11-28T00:44:56.795Z,100.00
2023-11-28T00:45:56.768Z,100.00
2023-11-28T00:46:56.815Z,100.00
2023-11-28T00:47:56.794Z,100.00
2023-11-28T00:48:56.711Z,100.00
2023-11-28T00:49:56.730Z,100.00
2023-11-28T00:50:56.708Z,100.00
2023-11-28T00:51:56.680Z,100.00
2023-11-28T00:52:56.690Z,100.00
2023-11-28T00:53:56.656Z,100.00
2023-11-28T00:54:56.660Z,100.00
2023-11-28T00:55:56.651Z,100.00
2023-11-28T00:56:56.629Z,100.00
2023-11-28T00:57:56.613Z,100.00
2023-11-28T00:58:56.620Z,100.00
2023-11-28T00:59:56.617Z,100.00
2023-11-28T01:00:56.565Z,100.00
2023-11-28T01:01:56.612Z,100.00
2023-11-28T01:02:56.699Z,100.00
2023-11-28T01:03:56.607Z,100.00
2023-11-28T01:04:56.541Z,100.00
2023-11-28T01:05:56.501Z,100.00
2023-11-28T01:06:56.491Z,100.00
2023-11-28T01:07:56.519Z,100.00
2023-11-28T01:08:56.462Z,100.00
2023-11-28T01:09:56.441Z,100.00
2023-11-28T01:10:56.496Z,100.00
2023-11-28T01:11:56.426Z,100.00
2023-11-28T01:12:56.418Z,100.00
2023-11-28T01:13:56.502Z,100.00
2023-11-28T01:14:56.396Z,100.00
2023-11-28T01:15:56.410Z,100.00
2023-11-28T01:16:56.388Z,100.00
2023-11-28T01:17:56.418Z,100.00
2023-11-28T01:18:56.339Z,100.00
2023-11-28T01:19:56.404Z,100.00
2023-11-28T01:20:56.315Z,100.00
2023-11-28T01:21:56.297Z,100.00
2023-11-28T01:22:56.315Z,100.00
2023-11-28T01:23:56.282Z,100.00
2023-11-28T01:24:56.289Z,100.00
2023-11-28T01:25:56.306Z,100.00
2023-11-28T01:26:56.232Z,100.00
2023-11-28T01:27:56.222Z,100.00
2023-11-28T01:28:56.229Z,100.00
2023-11-28T01:29:56.210Z,100.00
2023-11-28T01:30:56.206Z,100.00
2023-11-28T01:31:56.265Z,100.00
2023-11-28T01:32:56.188Z,100.00
2023-11-28T01:33:56.157Z,100.00
2023-11-28T01:34:56.172Z,100.00
2023-11-28T01:35:56.126Z,100.00
2023-11-28T01:36:56.115Z,100.00
2023-11-28T01:37:59.523Z,100.00
2023-11-28T01:38:56.106Z,100.00
2023-11-28T01:39:56.084Z,100.00
2023-11-28T01:40:56.126Z,100.00
2023-11-28T01:41:56.070Z,100.00
2023-11-28T01:42:56.034Z,100.00
2023-11-28T01:43:56.084Z,100.00
2023-11-28T01:44:56.005Z,100.00
2023-11-28T01:45:56.003Z,100.00
2023-11-28T01:46:56.016Z,100.00
2023-11-28T01:47:56.032Z,100.00
2023-11-28T01:48:55.973Z,100.00
2023-11-28T01:49:55.987Z,100.00
2023-11-28T01:50:55.921Z,100.00
2023-11-28T01:51:55.923Z,100.00
2023-11-28T01:52:55.941Z,100.00
2023-11-28T01:53:55.908Z,100.00
2023-11-28T01:54:55.886Z,100.00
2023-11-28T01:55:55.874Z,100.00
2023-11-28T01:56:55.860Z,100.00
2023-11-28T01:57:55.843Z,100.00
2023-11-28T01:58:55.889Z,100.00
2023-11-28T01:59:55.838Z,100.00
2023-11-28T02:00:55.811Z,100.00
2023-11-28T02:01:55.859Z,100.00
2023-11-28T02:02:55.944Z,100.00
2023-11-28T02:03:55.824Z,100.00
2023-11-28T02:04:55.806Z,100.00
2023-11-28T02:05:55.768Z,100.00
2023-11-28T02:06:55.736Z,100.00
2023-11-28T02:07:55.733Z,100.00
2023-11-28T02:08:55.710Z,100.00
2023-11-28T02:09:55.696Z,100.00
2023-11-28T02:10:55.731Z,100.00
2023-11-28T02:11:55.677Z,100.00
2023-11-28T02:12:55.660Z,100.00
2023-11-28T02:13:55.707Z,100.00
2023-11-28T02:14:55.655Z,100.00
2023-11-28T02:15:55.696Z,100.00
2023-11-28T02:16:55.733Z,100.00
2023-11-28T02:17:55.652Z,100.00
2023-11-28T02:18:55.584Z,100.00
2023-11-28T02:19:55.603Z,100.00
2023-11-28T02:20:55.561Z,100.00
2023-11-28T02:21:55.578Z,100.00
2023-11-28T02:22:55.596Z,100.00
2023-11-28T02:23:55.574Z,100.00
2023-11-28T02:24:55.522Z,100.00
2023-11-28T02:25:55.549Z,100.00
2023-11-28T02:26:55.510Z,100.00
2023-11-28T02:27:55.516Z,100.00
2023-11-28T02:28:55.509Z,100.00
2023-11-28T02:29:55.485Z,100.00
2023-11-28T02:30:55.425Z,100.00
2023-11-28T02:31:55.551Z,100.00
2023-11-28T02:32:55.455Z,100.00
2023-11-28T02:33:55.404Z,100.00
2023-11-28T02:34:55.421Z,100.00
2023-11-28T02:35:55.392Z,100.00
2023-11-28T02:36:55.360Z,100.00
2023-11-28T02:37:55.460Z,100.00
2023-11-28T02:38:55.362Z,100.00
2023-11-28T02:39:55.326Z,100.00
2023-11-28T02:40:55.340Z,100.00
2023-11-28T02:41:55.300Z,100.00
2023-11-28T02:42:55.314Z,100.00
2023-11-28T02:43:55.379Z,100.00
2023-11-28T02:44:55.294Z,100.00
2023-11-28T02:45:55.311Z,100.00
2023-11-28T02:46:55.296Z,100.00
2023-11-28T02:47:55.271Z,100.00
2023-11-28T02:48:55.209Z,100.00
2023-11-28T02:49:55.235Z,100.00
2023-11-28T02:50:55.190Z,100.00
2023-11-28T02:51:55.173Z,100.00
2023-11-28T02:52:55.186Z,100.00
2023-11-28T02:53:55.164Z,100.00
2023-11-28T02:54:55.132Z,100.00
2023-11-28T02:55:55.189Z,100.00
2023-11-28T02:56:55.113Z,100.00
2023-11-28T02:57:55.101Z,100.00
2023-11-28T02:58:55.096Z,100.00
2023-11-28T02:59:55.070Z,100.00
2023-11-28T03:00:55.064Z,100.00
2023-11-28T03:01:55.838Z,100.00
2023-11-28T03:02:55.160Z,100.00
2023-11-28T03:03:55.037Z,100.00
2023-11-28T03:04:55.015Z,100.00
2023-11-28T03:05:56.802Z,100.00
2023-11-28T03:06:54.979Z,100.00
2023-11-28T03:07:55.030Z,100.00
2023-11-28T03:08:54.949Z,100.00
2023-11-28T03:09:54.946Z,100.00
2023-11-28T03:10:54.994Z,100.00
2023-11-28T03:11:54.945Z,100.00
2023-11-28T03:12:54.932Z,100.00
2023-11-28T03:13:54.939Z,100.00
2023-11-28T03:14:54.888Z,100.00
2023-11-28T03:15:54.888Z,100.00
2023-11-28T03:16:54.958Z,100.00
2023-11-28T03:17:54.911Z,100.00
2023-11-28T03:18:54.860Z,100.00
2023-11-28T03:19:54.876Z,100.00
2023-11-28T03:20:54.805Z,100.00
2023-11-28T03:21:54.797Z,100.00
2023-11-28T03:22:54.802Z,100.00
2023-11-28T03:23:54.784Z,100.00
2023-11-28T03:24:54.795Z,100.00
2023-11-28T03:25:54.831Z,100.00
2023-11-28T03:26:54.732Z,100.00
2023-11-28T03:27:54.719Z,100.00
2023-11-28T03:28:54.756Z,100.00
2023-11-28T03:29:54.684Z,100.00
2023-11-28T03:30:54.709Z,100.00
2023-11-28T03:31:54.769Z,100.00
2023-11-28T03:32:54.718Z,100.00
2023-11-28T03:33:54.654Z,100.00
2023-11-28T03:34:54.719Z,100.00
2023-11-28T03:35:54.629Z,100.00
2023-11-28T03:36:54.633Z,100.00
2023-11-28T03:37:54.624Z,100.00
2023-11-28T03:38:54.586Z,100.00
2023-11-28T03:39:54.596Z,100.00
2023-11-28T03:40:54.597Z,100.00
2023-11-28T03:41:54.564Z,100.00
2023-11-28T03:42:54.556Z,100.00
2023-11-28T03:43:54.585Z,100.00
2023-11-28T03:44:54.507Z,100.00
2023-11-28T03:45:54.532Z,100.00
2023-11-28T03:46:54.523Z,100.00
2023-11-28T03:47:54.533Z,100.00
2023-11-28T03:48:54.454Z,100.00
2023-11-28T03:49:54.483Z,100.00
2023-11-28T03:50:54.447Z,100.00
2023-11-28T03:51:54.416Z,100.00
2023-11-28T03:52:54.450Z,100.00
2023-11-28T03:53:54.418Z,100.00
2023-11-28T03:54:54.411Z,100.00
2023-11-28T03:55:54.446Z,100.00
2023-11-28T03:56:54.367Z,100.00
2023-11-28T03:57:54.341Z,100.00
2023-11-28T03:58:54.455Z,100.00
2023-11-28T03:59:54.340Z,100.00
2023-11-28T04:00:54.314Z,100.00
2023-11-28T04:01:54.432Z,100.00
2023-11-28T04:02:54.438Z,100.00
2023-11-28T04:03:54.290Z,100.00
2023-11-28T04:04:54.307Z,100.00
2023-11-28T04:05:54.255Z,100.00
2023-11-28T04:06:54.236Z,100.00
2023-11-28T04:07:54.273Z,100.00
2023-11-28T04:08:54.229Z,100.00
2023-11-28T04:09:54.197Z,100.00
2023-11-28T04:10:54.237Z,100.00
2023-11-28T04:11:54.164Z,100.00
2023-11-28T04:12:54.155Z,100.00
2023-11-28T04:13:54.247Z,100.00
2023-11-28T04:14:54.138Z,100.00
2023-11-28T04:15:54.191Z,100.00
2023-11-28T04:16:54.140Z,100.00
2023-11-28T04:17:54.154Z,100.00
2023-11-28T04:18:54.098Z,100.00
2023-11-28T04:19:54.088Z,100.00
2023-11-28T04:20:54.052Z,100.00
2023-11-28T04:21:54.086Z,100.00
2023-11-28T04:22:54.051Z,100.00
2023-11-28T04:23:54.015Z,100.00
2023-11-28T04:24:56.838Z,100.00
2023-11-28T04:25:54.029Z,100.00
2023-11-28T04:26:53.984Z,100.00
2023-11-28T04:27:54.004Z,100.00
2023-11-28T04:28:53.982Z,100.00
2023-11-28T04:29:53.978Z,100.00
2023-11-28T04:30:54.000Z,100.00
2023-11-28T04:31:53.986Z,100.00
2023-11-28T04:32:53.970Z,100.00
2023-11-28T04:33:53.904Z,100.00
2023-11-28T04:34:53.930Z,100.00
2023-11-28T04:35:53.859Z,100.00
2023-11-28T04:36:53.872Z,100.00
2023-11-28T04:37:53.861Z,100.00
2023-11-28T04:38:53.870Z,100.00
2023-11-28T04:39:53.820Z,100.00
2023-11-28T04:40:53.880Z,100.00
2023-11-28T04:41:53.794Z,100.00
2023-11-28T04:42:53.863Z,100.00
2023-11-28T04:43:53.801Z,100.00
2023-11-28T04:44:53.800Z,100.00
2023-11-28T04:45:53.734Z,100.00
2023-11-28T04:46:53.791Z,100.00
2023-11-28T04:47:53.755Z,100.00
2023-11-28T04:48:53.713Z,100.00
2023-11-28T04:49:53.715Z,100.00
2023-11-28T04:50:53.707Z,100.00
2023-11-28T04:51:53.685Z,100.00
2023-11-28T04:52:53.713Z,100.00
2023-11-28T04:53:53.638Z,100.00
2023-11-28T04:54:53.639Z,100.00
2023-11-28T04:55:53.665Z,100.00
2023-11-28T04:56:53.610Z,100.00
2023-11-28T04:57:53.613Z,100.00
2023-11-28T04:58:53.588Z,100.00
2023-11-28T04:59:53.585Z,100.00
2023-11-28T05:00:53.579Z,100.00
2023-11-28T05:01:53.673Z,100.00
2023-11-28T05:02:53.742Z,100.00
2023-11-28T05:03:53.613Z,100.00
2023-11-28T05:04:53.549Z,100.00
2023-11-28T05:05:53.496Z,100.00
2023-11-28T05:06:53.487Z,100.00
2023-11-28T05:07:53.518Z,100.00
2023-11-28T05:08:53.456Z,100.00
2023-11-28T05:09:53.447Z,100.00
2023-11-28T05:10:53.463Z,100.00
2023-11-28T05:11:53.433Z,100.00
2023-11-28T05:12:53.427Z,100.00
2023-11-28T05:13:53.408Z,100.00
2023-11-28T05:14:53.381Z,100.00
2023-11-28T05:15:53.374Z,100.00
2023-11-28T05:16:54.505Z,100.00
2023-11-28T05:17:53.537Z,100.00
2023-11-28T05:18:53.431Z,100.00
2023-11-28T05:19:53.377Z,100.00
2023-11-28T05:20:53.318Z,100.00
2023-11-28T05:21:53.298Z,100.00
2023-11-28T05:22:53.328Z,100.00
2023-11-28T05:23:53.332Z,100.00
2023-11-28T05:24:53.292Z,100.00
2023-11-28T05:25:53.270Z,100.00
2023-11-28T05:26:53.249Z,100.00
2023-11-28T05:27:53.219Z,100.00
2023-11-28T05:28:53.237Z,100.00
2023-11-28T05:29:53.180Z,100.00
2023-11-28T05:30:53.266Z,100.00
2023-11-28T05:31:53.185Z,100.00
2023-11-28T05:32:53.232Z,100.00
2023-11-28T05:33:53.141Z,100.00
2023-11-28T05:34:53.168Z,100.00
2023-11-28T05:35:53.118Z,100.00
2023-11-28T05:36:53.147Z,100.00
2023-11-28T05:37:53.133Z,100.00
2023-11-28T05:38:53.094Z,100.00
2023-11-28T05:39:53.068Z,100.00
2023-11-28T05:40:53.069Z,100.00
2023-11-28T05:41:53.062Z,100.00
2023-11-28T05:42:53.044Z,100.00
2023-11-28T05:43:53.077Z,100.00
2023-11-28T05:44:53.004Z,100.00
2023-11-28T05:45:52.997Z,100.00
2023-11-28T05:46:53.027Z,100.00
2023-11-28T05:47:53.049Z,100.00
2023-11-28T05:48:52.964Z,100.00
2023-11-28T05:49:52.991Z,100.00
2023-11-28T05:50:52.924Z,100.00
2023-11-28T05:51:52.918Z,100.00
2023-11-28T05:52:52.952Z,100.00
2023-11-28T05:53:52.920Z,100.00
2023-11-28T05:54:52.874Z,100.00
2023-11-28T05:55:52.928Z,100.00
2023-11-28T05:56:52.860Z,100.00
2023-11-28T05:57:52.847Z,100.00
2023-11-28T05:58:52.867Z,100.00
2023-11-28T05:59:52.854Z,100.00
2023-11-28T06:00:52.810Z,100.00
2023-11-28T06:01:52.869Z,100.00
2023-11-28T06:02:52.897Z,100.00
2023-11-28T06:03:52.821Z,100.00
2023-11-28T06:04:52.830Z,100.00
2023-11-28T06:05:52.733Z,100.00
2023-11-28T06:06:52.736Z,100.00
2023-11-28T06:07:52.740Z,100.00
2023-11-28T06:08:52.717Z,100.00
2023-11-28T06:09:52.679Z,100.00
2023-11-28T06:10:52.723Z,100.00
2023-11-28T06:11:52.685Z,100.00
2023-11-28T06:12:52.671Z,100.00
2023-11-28T06:13:52.679Z,100.00
2023-11-28T06:14:52.658Z,100.00
2023-11-28T06:15:52.645Z,100.00
2023-11-28T06:16:52.680Z,100.00
2023-11-28T06:17:52.627Z,100.00
2023-11-28T06:18:52.580Z,100.00
2023-11-28T06:19:52.597Z,100.00
2023-11-28T06:20:52.558Z,100.00
2023-11-28T06:21:52.572Z,100.00
2023-11-28T06:22:52.576Z,100.00
2023-11-28T06:23:52.580Z,100.00
2023-11-28T06:24:52.518Z,100.00
2023-11-28T06:25:52.524Z,100.00
2023-11-28T06:26:52.493Z,100.00
2023-11-28T06:27:52.512Z,100.00
2023-11-28T06:28:52.561Z,100.00
2023-11-28T06:29:52.456Z,100.00
2023-11-28T06:30:52.461Z,100.00
2023-11-28T06:31:52.439Z,100.00
2023-11-28T06:32:52.431Z,100.00
2023-11-28T06:33:52.397Z,100.00
2023-11-28T06:34:52.484Z,100.00
2023-11-28T06:35:52.433Z,100.00
2023-11-28T06:36:52.378Z,100.00
2023-11-28T06:37:52.351Z,100.00
2023-11-28T06:38:52.349Z,100.00
2023-11-28T06:39:52.318Z,100.00
2023-11-28T06:40:52.304Z,100.00
2023-11-28T06:41:52.302Z,100.00
2023-11-28T06:42:52.275Z,100.00
2023-11-28T06:43:52.373Z,100.00
2023-11-28T06:44:52.277Z,100.00
2023-11-28T06:45:52.233Z,100.00
2023-11-28T06:46:52.287Z,100.00
2023-11-28T06:47:52.333Z,100.00
2023-11-28T06:48:52.253Z,100.00
2023-11-28T06:49:52.235Z,100.00
2023-11-28T06:50:52.186Z,100.00
2023-11-28T06:51:52.173Z,100.00
2023-11-28T06:52:52.156Z,100.00
2023-11-28T06:53:52.162Z,100.00
2023-11-28T06:54:52.126Z,100.00
2023-11-28T06:55:52.167Z,100.00
2023-11-28T06:56:52.093Z,100.00
2023-11-28T06:57:52.075Z,100.00
2023-11-28T06:58:52.085Z,100.00
2023-11-28T06:59:52.070Z,100.00
2023-11-28T07:00:54.432Z,100.00
2023-11-28T07:01:52.404Z,100.00
2023-11-28T07:02:52.110Z,100.00
2023-11-28T07:03:52.051Z,100.00
2023-11-28T07:04:52.043Z,100.00
2023-11-28T07:05:52.083Z,100.00
2023-11-28T07:06:51.974Z,100.00
2023-11-28T07:07:51.988Z,100.00
2023-11-28T07:08:51.963Z,100.00
2023-11-28T07:09:51.933Z,100.00
2023-11-28T07:10:51.968Z,100.00
2023-11-28T07:11:51.891Z,100.00
2023-11-28T07:12:51.932Z,100.00
2023-11-28T07:13:51.908Z,100.00
2023-11-28T07:14:51.880Z,100.00
2023-11-28T07:15:51.916Z,100.00
2023-11-28T07:16:51.895Z,100.00
2023-11-28T07:17:51.826Z,100.00
2023-11-28T07:18:51.856Z,100.00
2023-11-28T07:19:51.858Z,100.00
2023-11-28T07:20:51.807Z,100.00
2023-11-28T07:21:51.791Z,100.00
2023-11-28T07:22:51.829Z,100.00
2023-11-28T07:23:51.765Z,100.00
2023-11-28T07:24:51.773Z,100.00
2023-11-28T07:25:51.814Z,100.00
2023-11-28T07:26:51.711Z,100.00
2023-11-28T07:27:51.708Z,100.00
2023-11-28T07:28:51.696Z,100.00
2023-11-28T07:29:51.679Z,100.00
2023-11-28T07:30:51.722Z,100.00
2023-11-28T07:31:51.700Z,100.00
2023-11-28T07:32:51.730Z,100.00
2023-11-28T07:33:51.622Z,100.00
2023-11-28T07:34:51.663Z,100.00
2023-11-28T07:35:51.604Z,100.00
2023-11-28T07:36:51.646Z,100.00
2023-11-28T07:37:51.607Z,100.00
2023-11-28T07:38:51.582Z,100.00
2023-11-28T07:39:51.544Z,100.00
2023-11-28T07:40:51.579Z,100.00
2023-11-28T07:41:51.549Z,100.00
2023-11-28T07:42:51.537Z,100.00
2023-11-28T07:43:51.573Z,100.00
2023-11-28T07:44:51.502Z,100.00
2023-11-28T07:45:51.484Z,100.00
2023-11-28T07:46:51.492Z,100.00
2023-11-28T07:47:51.515Z,100.00
2023-11-28T07:48:51.438Z,100.00
2023-11-28T07:49:51.507Z,100.00
2023-11-28T07:50:51.409Z,100.00
2023-11-28T07:51:51.413Z,100.00
2023-11-28T07:52:51.436Z,100.00
2023-11-28T07:53:51.416Z,100.00
2023-11-28T07:54:51.352Z,100.00
2023-11-28T07:55:51.373Z,100.00
2023-11-28T07:56:51.356Z,100.00
2023-11-28T07:57:51.338Z,100.00
2023-11-28T07:58:51.395Z,100.00
2023-11-28T07:59:51.302Z,100.00
2023-11-28T08:00:51.288Z,100.00
2023-11-28T08:01:51.341Z,100.00
2023-11-28T08:02:51.348Z,100.00
2023-11-28T08:03:51.306Z,100.00
2023-11-28T08:04:51.375Z,100.00
2023-11-28T08:05:51.271Z,100.00
2023-11-28T08:06:51.199Z,100.00
2023-11-28T08:07:51.258Z,100.00
2023-11-28T08:08:51.199Z,100.00
2023-11-28T08:09:51.194Z,100.00
2023-11-28T08:10:51.227Z,100.00
2023-11-28T08:11:51.249Z,100.00
2023-11-28T08:12:51.159Z,100.00
2023-11-28T08:13:51.196Z,100.00
2023-11-28T08:14:51.117Z,100.00
2023-11-28T08:15:51.128Z,100.00
2023-11-28T08:16:51.238Z,100.00
2023-11-28T08:17:51.106Z,100.00
2023-11-28T08:18:51.170Z,100.00
2023-11-28T08:19:51.059Z,100.00
2023-11-28T08:20:51.040Z,100.00
2023-11-28T08:21:51.077Z,100.00
2023-11-28T08:22:51.056Z,100.00
2023-11-28T08:23:51.012Z,100.00
2023-11-28T08:24:50.990Z,100.00
2023-11-28T08:25:51.021Z,100.00
2023-11-28T08:26:50.970Z,100.00
2023-11-28T08:27:50.978Z,100.00
2023-11-28T08:28:51.116Z,100.00
2023-11-28T08:29:50.931Z,100.00
2023-11-28T08:30:50.924Z,100.00
2023-11-28T08:31:51.004Z,100.00
2023-11-28T08:32:50.963Z,100.00
2023-11-28T08:33:50.958Z,100.00
2023-11-28T08:34:50.922Z,100.00
2023-11-28T08:35:50.872Z,100.00
2023-11-28T08:36:50.844Z,100.00
2023-11-28T08:37:50.873Z,100.00
2023-11-28T08:38:50.840Z,100.00
2023-11-28T08:39:50.806Z,100.00
2023-11-28T08:40:50.809Z,100.00
2023-11-28T08:41:50.815Z,100.00
2023-11-28T08:42:50.771Z,100.00
2023-11-28T08:43:50.773Z,100.00
2023-11-28T08:44:51.120Z,100.00
2023-11-28T08:45:50.762Z,100.00
2023-11-28T08:46:50.891Z,100.00
2023-11-28T08:47:50.798Z,100.00
2023-11-28T08:48:50.703Z,100.00
2023-11-28T08:49:50.781Z,100.00
2023-11-28T08:50:50.685Z,100.00
2023-11-28T08:51:50.664Z,100.00
2023-11-28T08:52:50.671Z,100.00
2023-11-28T08:53:50.626Z,100.00
2023-11-28T08:54:50.621Z,100.00
2023-11-28T08:55:50.775Z,100.00
2023-11-28T08:56:50.578Z,100.00
2023-11-28T08:57:50.608Z,100.00
2023-11-28T08:58:50.593Z,100.00
2023-11-28T08:59:50.545Z,100.00
2023-11-28T09:00:50.565Z,100.00
2023-11-28T09:01:50.699Z,100.00
2023-11-28T09:02:50.739Z,100.00
2023-11-28T09:03:50.817Z,100.00
2023-11-28T09:04:50.550Z,100.00
2023-11-28T09:05:50.486Z,100.00
2023-11-28T09:06:50.485Z,100.00
2023-11-28T09:07:50.547Z,100.00
2023-11-28T09:08:51.073Z,100.00
2023-11-28T09:09:50.424Z,100.00
2023-11-28T09:10:50.535Z,100.00
2023-11-28T09:11:50.410Z,100.00
2023-11-28T09:12:50.481Z,100.00
2023-11-28T09:13:50.431Z,100.00
2023-11-28T09:14:56.041Z,100.00
2023-11-28T09:15:50.379Z,99.92
2023-11-28T09:16:50.442Z,99.81
2023-11-28T09:17:50.389Z,99.72
2023-11-28T09:18:55.434Z,99.62
2023-11-28T09:19:50.387Z,99.30
2023-11-28T09:20:50.299Z,99.19
2023-11-28T09:21:50.277Z,99.17
2023-11-28T09:22:50.307Z,99.06
2023-11-28T09:23:50.275Z,98.73
2023-11-28T09:24:50.267Z,98.56
2023-11-28T09:25:57.052Z,98.51
2023-11-28T09:26:50.270Z,98.51
2023-11-28T09:27:50.237Z,98.56
2023-11-28T09:28:50.235Z,98.57
2023-11-28T09:29:52.711Z,98.62
2023-11-28T09:30:50.192Z,98.51
2023-11-28T09:31:50.182Z,98.21
2023-11-28T09:32:50.263Z,97.82
2023-11-28T09:33:50.166Z,97.51
2023-11-28T09:34:50.192Z,97.37
2023-11-28T09:35:50.168Z,97.19
2023-11-28T09:36:50.146Z,96.68
2023-11-28T09:37:50.172Z,96.20
2023-11-28T09:38:50.136Z,96.07
2023-11-28T09:39:50.068Z,95.77
2023-11-28T09:40:50.236Z,95.50
2023-11-28T09:41:50.041Z,95.55
2023-11-28T09:42:50.014Z,95.19
2023-11-28T09:43:50.008Z,94.70
2023-11-28T09:44:49.994Z,94.54
2023-11-28T09:45:49.966Z,94.37
2023-11-28T09:46:50.144Z,93.96
2023-11-28T09:47:50.136Z,93.84
2023-11-28T09:48:50.034Z,93.92
2023-11-28T09:49:49.945Z,94.06
2023-11-28T09:50:49.923Z,94.07
2023-11-28T09:51:49.941Z,93.53
2023-11-28T09:52:49.934Z,93.28
2023-11-28T09:53:49.909Z,93.34
2023-11-28T09:54:49.855Z,93.40
2023-11-28T09:55:50.417Z,93.71
2023-11-28T09:56:49.843Z,93.91
2023-11-28T09:57:49.835Z,94.33
2023-11-28T09:58:49.861Z,94.61
2023-11-28T09:59:51.454Z,94.78
2023-11-28T10:00:49.775Z,94.76
2023-11-28T10:01:49.871Z,94.51
2023-11-28T10:02:49.808Z,94.48
2023-11-28T10:03:49.863Z,94.69
2023-11-28T10:04:49.793Z,94.66
2023-11-28T10:05:49.727Z,94.71
2023-11-28T10:06:49.704Z,94.80
2023-11-28T10:07:49.702Z,94.75
2023-11-28T10:08:49.696Z,94.51
2023-11-28T10:09:49.696Z,94.56
2023-11-28T10:10:49.689Z,94.66
2023-11-28T10:11:49.631Z,94.88
2023-11-28T10:12:49.623Z,94.91
2023-11-28T10:13:49.733Z,94.96
2023-11-28T10:14:49.656Z,94.88
2023-11-28T10:15:49.627Z,94.91
2023-11-28T10:16:49.753Z,94.86
2023-11-28T10:17:49.804Z,94.74
2023-11-28T10:18:49.644Z,94.64
2023-11-28T10:19:49.544Z,94.60
2023-11-28T10:20:49.527Z,94.23
2023-11-28T10:21:49.501Z,94.17
2023-11-28T10:22:49.512Z,93.90
2023-11-28T10:23:49.483Z,94.30
2023-11-28T10:24:50.265Z,94.62
2023-11-28T10:25:49.510Z,94.57
2023-11-28T10:26:49.467Z,94.48
2023-11-28T10:27:49.426Z,94.69
2023-11-28T10:28:49.450Z,94.41
2023-11-28T10:29:49.410Z,94.17
2023-11-28T10:30:51.550Z,94.17
2023-11-28T10:31:49.456Z,94.31
2023-11-28T10:32:49.414Z,94.54
2023-11-28T10:33:49.359Z,94.56
2023-11-28T10:34:49.372Z,94.34
2023-11-28T10:35:49.333Z,94.03
2023-11-28T10:36:49.327Z,93.86
2023-11-28T10:37:49.349Z,93.96
2023-11-28T10:38:49.316Z,93.66
2023-11-28T10:39:49.280Z,93.36
2023-11-28T10:40:49.500Z,93.72
2023-11-28T10:41:49.270Z,93.82
2023-11-28T10:42:50.438Z,93.71
2023-11-28T10:43:49.257Z,93.80
2023-11-28T10:44:49.212Z,93.64
2023-11-28T10:45:49.211Z,93.67
2023-11-28T10:46:49.287Z,93.66
2023-11-28T10:47:49.260Z,93.55
2023-11-28T10:48:49.210Z,93.45
2023-11-28T10:49:49.214Z,93.75
2023-11-28T10:50:49.139Z,93.92
2023-11-28T10:51:49.134Z,93.98
2023-11-28T10:52:49.162Z,93.64
2023-11-28T10:53:49.102Z,93.62
2023-11-28T10:54:49.109Z,93.75
2023-11-28T10:55:49.091Z,93.87
2023-11-28T10:56:49.076Z,93.90
2023-11-28T10:57:49.072Z,93.56
2023-11-28T10:58:49.060Z,93.26
2023-11-28T10:59:49.047Z,93.41
2023-11-28T11:00:49.031Z,93.54
2023-11-28T11:01:49.161Z,93.18
2023-11-28T11:02:49.001Z,93.61
2023-11-28T11:03:49.073Z,93.84
2023-11-28T11:04:49.204Z,93.79
2023-11-28T11:05:48.961Z,93.80
2023-11-28T11:06:48.957Z,94.02
2023-11-28T11:07:48.947Z,93.85
2023-11-28T11:08:48.922Z,93.52
2023-11-28T11:09:48.954Z,93.58
2023-11-28T11:10:49.052Z,93.81
2023-11-28T11:11:48.885Z,93.91
2023-11-28T11:12:48.893Z,93.58
2023-11-28T11:13:48.846Z,93.50
2023-11-28T11:14:48.858Z,92.86
2023-11-28T11:15:48.842Z,93.16
2023-11-28T11:16:48.954Z,93.36
2023-11-28T11:17:48.813Z,93.48
2023-11-28T11:18:48.841Z,93.51
2023-11-28T11:19:48.808Z,93.73
2023-11-28T11:20:48.776Z,93.96
2023-11-28T11:21:48.755Z,94.08
2023-11-28T11:22:48.787Z,94.20
2023-11-28T11:23:48.725Z,94.04
2023-11-28T11:24:48.729Z,94.03
2023-11-28T11:25:48.704Z,94.17
2023-11-28T11:26:48.692Z,94.31
2023-11-28T11:27:48.681Z,93.92
2023-11-28T11:28:48.767Z,93.11
2023-11-28T11:29:48.638Z,93.44
2023-11-28T11:30:48.634Z,93.95
2023-11-28T11:31:48.679Z,94.09
2023-11-28T11:32:48.628Z,94.25
2023-11-28T11:33:48.605Z,94.29
2023-11-28T11:34:48.690Z,94.34
2023-11-28T11:35:48.570Z,94.38
2023-11-28T11:36:48.595Z,94.16
2023-11-28T11:37:48.570Z,93.92
2023-11-28T11:38:48.565Z,94.17
2023-11-28T11:39:48.557Z,94.58
2023-11-28T11:40:48.586Z,94.67
2023-11-28T11:41:48.493Z,94.11
2023-11-28T11:42:48.479Z,93.93
2023-11-28T11:43:48.519Z,93.63
2023-11-28T11:44:48.498Z,93.49
2023-11-28T11:45:48.449Z,93.33
2023-11-28T11:46:48.449Z,93.12
2023-11-28T11:47:48.477Z,93.05
2023-11-28T11:48:48.464Z,92.89
2023-11-28T11:49:48.414Z,93.07
2023-11-28T11:50:48.440Z,93.28
2023-11-28T11:51:48.367Z,93.39
2023-11-28T11:52:48.385Z,93.18
2023-11-28T11:53:48.373Z,93.19
2023-11-28T11:54:48.329Z,92.90
2023-11-28T11:55:48.434Z,92.98
2023-11-28T11:56:48.340Z,92.96
2023-11-28T11:57:48.357Z,93.23
2023-11-28T11:58:48.315Z,93.38
2023-11-28T11:59:48.298Z,93.35
2023-11-28T12:00:48.287Z,93.71
2023-11-28T12:01:48.341Z,94.01
2023-11-28T12:02:48.345Z,93.85
2023-11-28T12:03:48.299Z,94.23
2023-11-28T12:04:48.340Z,94.45
2023-11-28T12:05:48.253Z,94.65
2023-11-28T12:06:48.186Z,94.85
2023-11-28T12:07:48.187Z,94.81
2023-11-28T12:08:48.215Z,94.69
2023-11-28T12:09:48.153Z,95.15
2023-11-28T12:10:48.189Z,95.71
2023-11-28T12:11:48.119Z,95.83
2023-11-28T12:12:48.122Z,95.92
2023-11-28T12:13:48.124Z,96.11
2023-11-28T12:14:48.116Z,96.28
2023-11-28T12:15:48.076Z,96.21
2023-11-28T12:16:48.132Z,96.19
2023-11-28T12:17:48.185Z,96.21
2023-11-28T12:18:48.079Z,96.31
2023-11-28T12:19:48.034Z,96.48
2023-11-28T12:20:48.107Z,96.56
2023-11-28T12:21:48.021Z,96.59
2023-11-28T12:22:48.004Z,96.63
2023-11-28T12:23:47.965Z,96.68
2023-11-28T12:24:47.961Z,96.63
2023-11-28T12:25:48.034Z,96.65
2023-11-28T12:26:47.957Z,96.44
2023-11-28T12:27:47.919Z,96.20
2023-11-28T12:28:47.933Z,95.73
2023-11-28T12:29:47.914Z,95.50
2023-11-28T12:30:49.124Z,95.64
2023-11-28T12:31:47.992Z,95.81
2023-11-28T12:32:47.946Z,95.74
2023-11-28T12:33:47.866Z,95.80
2023-11-28T12:34:47.904Z,96.04